createdAt,value
2023-03-22T00:01:48.756Z,0
2023-03-22T00:07:25.643Z,0
2023-03-22T00:12:59.130Z,0
2023-03-22T00:18:47.519Z,0
2023-03-22T00:24:10.957Z,0
2023-03-22T00:29:45.761Z,0
2023-03-22T00:35:31.767Z,0
2023-03-22T00:40:59.327Z,0
2023-03-22T00:46:31.068Z,0
2023-03-22T00:51:58.578Z,0
2023-03-22T00:57:33.306Z,0
2023-03-22T01:03:18.099Z,5.9
2023-03-22T01:08:47.361Z,0
2023-03-22T01:14:09.716Z,0
2023-03-22T01:19:38.743Z,0
2023-03-22T01:25:21.193Z,0
2023-03-22T01:30:58.566Z,0
2023-03-22T01:36:33.923Z,0
2023-03-22T01:42:07.201Z,0
2023-03-22T01:47:39.259Z,0
2023-03-22T01:52:56.341Z,0
2023-03-22T01:58:49.629Z,0
2023-03-22T02:04:12.261Z,0
2023-03-22T02:09:47.056Z,0
2023-03-22T02:15:27.613Z,0
2023-03-22T02:20:43.436Z,0
2023-03-22T02:26:17.083Z,0
2023-03-22T02:31:56.378Z,0
2023-03-22T02:37:27.979Z,0
2023-03-22T02:43:05.350Z,0
2023-03-22T02:48:46.517Z,0
2023-03-22T02:54:12.063Z,0
2023-03-22T02:59:40.602Z,0
2023-03-22T03:05:22.441Z,0
2023-03-22T03:11:00.383Z,0
2023-03-22T03:16:32.579Z,0
2023-03-22T03:22:05.117Z,0
2023-03-22T03:27:13.109Z,0
2023-03-22T03:33:12.682Z,0
2023-03-22T03:38:34.919Z,0
2023-03-22T03:43:58.975Z,0
2023-03-22T03:49:23.659Z,0
2023-03-22T03:55:03.528Z,0
2023-03-22T04:00:40.251Z,0
2023-03-22T04:06:15.798Z,0
2023-03-22T04:11:53.853Z,0
2023-03-22T04:17:25.196Z,2.4
2023-03-22T04:23:06.804Z,0
2023-03-22T04:28:39.856Z,0
2023-03-22T04:33:47.310Z,0
2023-03-22T04:39:40.390Z,0
2023-03-22T04:45:15.324Z,0
2023-03-22T04:50:26.280Z,0
2023-03-22T04:56:06.771Z,0
2023-03-22T05:01:38.139Z,0
2023-03-22T05:07:27.525Z,0
2023-03-22T05:12:56.736Z,0
2023-03-22T05:18:32.086Z,0
2023-03-22T05:24:02.841Z,0
2023-03-22T05:29:16.828Z,0
2023-03-22T05:35:09.078Z,0
2023-03-22T05:40:44.085Z,0
2023-03-22T05:46:01.686Z,0
2023-03-22T05:51:37.044Z,0
2023-03-22T05:57:05.947Z,0
2023-03-22T06:03:01.613Z,0
2023-03-22T06:08:32.396Z,0
2023-03-22T06:13:48.105Z,0
2023-03-22T06:19:36.929Z,0
2023-03-22T06:24:57.268Z,0
2023-03-22T06:30:23.154Z,0
2023-03-22T06:35:57.021Z,0
2023-03-22T06:41:23.191Z,0
2023-03-22T06:47:09.646Z,0
2023-03-22T06:52:33.016Z,0
2023-03-22T06:58:04.981Z,0
2023-03-22T07:03:40.490Z,0
2023-03-22T07:09:26.383Z,0
2023-03-22T07:14:51.922Z,0
2023-03-22T07:20:14.133Z,0
2023-03-22T07:26:00.187Z,0
2023-03-22T07:31:42.306Z,0
2023-03-22T07:37:14.742Z,0
2023-03-22T07:42:47.432Z,0
2023-03-22T07:48:12.979Z,0
2023-03-22T07:53:38.619Z,0
2023-03-22T07:59:20.154Z,0
2023-03-22T08:05:04.390Z,0
2023-03-22T08:10:32.140Z,0
2023-03-22T08:16:02.857Z,0
2023-03-22T08:22:00.155Z,0
2023-03-22T08:27:32.368Z,0
2023-03-22T08:32:43.487Z,0
2023-03-22T08:38:18.640Z,0
2023-03-22T08:44:15.481Z,0
2023-03-22T08:49:49.388Z,0
2023-03-22T08:55:23.841Z,0
2023-03-22T09:00:48.438Z,0
2023-03-22T09:06:27.321Z,0
2023-03-22T09:11:51.309Z,0
2023-03-22T09:17:39.107Z,0
2023-03-22T09:23:25.472Z,0
2023-03-22T09:28:55.779Z,0
2023-03-22T09:34:34.937Z,0
2023-03-22T09:39:54.502Z,4.8
2023-03-22T09:45:37.685Z,0
2023-03-22T09:51:28.238Z,0
2023-03-22T09:57:03.411Z,0
2023-03-22T10:02:40.642Z,0
2023-03-22T10:08:16.696Z,3.6
2023-03-22T10:13:48.480Z,4.8
2023-03-22T10:19:09.353Z,3.6
2023-03-22T10:24:51.749Z,4.8
2023-03-22T10:30:28.785Z,8.4
2023-03-22T10:36:05.143Z,5.9
2023-03-22T10:41:30.332Z,3.6
2023-03-22T10:47:26.341Z,2.4
2023-03-22T10:52:43.913Z,2.4
2023-03-22T10:58:15.255Z,3.6
2023-03-22T11:03:54.542Z,3.6
2023-03-22T11:09:28.556Z,3.6
2023-03-22T11:15:30.351Z,4.8
2023-03-22T11:20:44.051Z,5.9
2023-03-22T11:26:21.093Z,4.8
2023-03-22T11:32:16.328Z,5.9
2023-03-22T11:37:34.315Z,4.8
2023-03-22T11:43:23.889Z,4.8
2023-03-22T11:48:46.845Z,5.9
2023-03-22T11:54:25.016Z,4.8
2023-03-22T12:00:06.198Z,3.6
2023-03-22T12:06:01.906Z,4.8
2023-03-22T12:11:22.212Z,5.9
2023-03-22T12:17:03.126Z,4.8
2023-03-22T12:22:42.584Z,4.8
2023-03-22T12:28:22.287Z,4.8
2023-03-22T12:34:13.015Z,3.6
2023-03-22T12:39:44.081Z,4.8
2023-03-22T12:45:05.909Z,3.6
2023-03-22T12:50:55.330Z,3.6
2023-03-22T12:56:30.149Z,3.6
2023-03-22T13:02:06.345Z,4.8
2023-03-22T13:07:47.055Z,4.8
2023-03-22T13:13:12.245Z,5.9
2023-03-22T13:19:17.812Z,3.6
2023-03-22T13:24:50.662Z,5.9
2023-03-22T13:30:19.438Z,7.2
2023-03-22T13:35:54.910Z,5.9
2023-03-22T13:41:42.632Z,5.9
2023-03-22T13:47:24.283Z,8.4
2023-03-22T13:53:01.300Z,9.6
2023-03-22T13:58:36.863Z,9.6
2023-03-22T14:04:04.432Z,9.6
2023-03-22T14:09:40.961Z,8.4
2023-03-22T14:15:28.172Z,7.2
2023-03-22T14:21:08.618Z,4.8
